Aeroporto :
LOGIN :

Iscrizione | Disclaimer

   EN    FR    IT 

 










Sommario :    VFR   VFR Marginale   IFR   IFR Intensivo   IFR Molto Intensivo
Visibilità : 
Base nubi : 
>= 8 km
>= 3000ft
5 / 8 km
1000 / 3000 ft
1500m / 5 km
500 / 1000 ft
800 / 1500m
200 / 500 ft
< 800m
< 200 ft
Simboli :   Temporali  Nebbia  Neve Forte  Precipitazioni Forti  Vento > 20 kt
SIGMETs :   Varie  Temporali  Ghiacco  Turbolenza  Onda orograficha  Ceneri Vulcaniche






- Altitudine del aeroporto : 686 ft


LYKV - Ladevci

ULTIMO METAR :
  • 260030Z 00000KT 8000 BKN930 12/12 Q1024 NOSIG

METARs OBSOLETI :
  • 260000Z VRB02KT 9999 BKN930 12/12 Q1024 NOSIG
  • 252330Z VRB01KT 9999 BKN043 12/12 Q1024 NOSIG
  • 252300Z 00000KT 9999 BKN043 12/12 Q1024 NOSIG
  • 252230Z 00000KT 9999 SCT030 BKN043 12/12 Q1024 NOSIG
  • 252200Z 00000KT 9999 SCT030 BKN043 12/12 Q1024 NOSIG

TAF TAF LYKV
Valido dal 26 a 00 ore il 27 a 00 ore UTC


252300Z 2600/2624 32008KT 9999 BKN033 TX15/2613Z TN06/2603Z
TEMPO 2609/2618 5000 SHRA SCT030TCU SCT033
TEMPO 2611/2617 VRB15G25KT 3000 TSRA SCT015 SCT027CB SCT033



MetMap, La meteo Aeronautica in un colpo d'occhio ! - Copyright ORBIFLY Dicembre 2007 - Disclaimer

ORBIFLY MET'MAP TEAM :

Programmazione e sviluppo : Alexandra Zaïnal
Concezione : Baudouin d'Aumeries
Aiuto per la programmazione : Marc-Olivier Méhu
Supporto tecnico e logistico : Manuel Goepfert
Aiuto per la traduzione : Arnaldo La Scala

Contatto : metmap@orbifly.com




FONTI E CREDITI :

   NOAA